sensor_id;sensor_type;location;lat;lon;timestamp;P1;P2;P0
47982;PMS5003;33751;50.816;-1.214;2024-03-07T00:02:18;4;4;
47982;PMS5003;33751;50.816;-1.214;2024-03-07T00:04:45;6;4;
47982;PMS5003;33751;50.816;-1.214;2024-03-07T00:07:12;3;3;
47982;PMS5003;33751;50.816;-1.214;2024-03-07T00:09:39;3;3;
47982;PMS5003;33751;50.816;-1.214;2024-03-07T00:12:06;3;3;
47982;PMS5003;33751;50.816;-1.214;2024-03-07T00:14:34;4;3;
47982;PMS5003;33751;50.816;-1.214;2024-03-07T00:17:01;5;3;
47982;PMS5003;33751;50.816;-1.214;2024-03-07T00:19:28;5;5;
47982;PMS5003;33751;50.816;-1.214;2024-03-07T00:21:56;3;3;
47982;PMS5003;33751;50.816;-1.214;2024-03-07T00:24:23;2;2;
47982;PMS5003;33751;50.816;-1.214;2024-03-07T00:26:50;3;3;
47982;PMS5003;33751;50.816;-1.214;2024-03-07T00:29:17;4;4;
47982;PMS5003;33751;50.816;-1.214;2024-03-07T00:31:44;1;1;
47982;PMS5003;33751;50.816;-1.214;2024-03-07T00:34:11;4;4;
47982;PMS5003;33751;50.816;-1.214;2024-03-07T00:36:38;4;4;
47982;PMS5003;33751;50.816;-1.214;2024-03-07T00:39:05;3;3;
47982;PMS5003;33751;50.816;-1.214;2024-03-07T00:41:32;2;1;
47982;PMS5003;33751;50.816;-1.214;2024-03-07T00:43:58;2;2;
47982;PMS5003;33751;50.816;-1.214;2024-03-07T00:46:25;5;4;
47982;PMS5003;33751;50.816;-1.214;2024-03-07T00:48:51;5;3;
47982;PMS5003;33751;50.816;-1.214;2024-03-07T00:51:18;4;3;
47982;PMS5003;33751;50.816;-1.214;2024-03-07T00:53:45;2;2;
47982;PMS5003;33751;50.816;-1.214;2024-03-07T00:56:12;3;3;
47982;PMS5003;33751;50.816;-1.214;2024-03-07T00:58:38;3;3;
47982;PMS5003;33751;50.816;-1.214;2024-03-07T01:01:05;3;2;
47982;PMS5003;33751;50.816;-1.214;2024-03-07T01:03:32;3;3;
47982;PMS5003;33751;50.816;-1.214;2024-03-07T01:05:58;4;4;
47982;PMS5003;33751;50.816;-1.214;2024-03-07T01:08:26;3;3;
47982;PMS5003;33751;50.816;-1.214;2024-03-07T01:10:52;4;3;
47982;PMS5003;33751;50.816;-1.214;2024-03-07T01:13:19;2;2;
47982;PMS5003;33751;50.816;-1.214;2024-03-07T01:15:45;3;3;
47982;PMS5003;33751;50.816;-1.214;2024-03-07T01:18:12;3;3;
47982;PMS5003;33751;50.816;-1.214;2024-03-07T01:20:39;5;3;
47982;PMS5003;33751;50.816;-1.214;2024-03-07T01:23:05;2;2;
47982;PMS5003;33751;50.816;-1.214;2024-03-07T01:25:37;3;3;
47982;PMS5003;33751;50.816;-1.214;2024-03-07T01:28:03;3;3;
47982;PMS5003;33751;50.816;-1.214;2024-03-07T01:30:30;4;2;
47982;PMS5003;33751;50.816;-1.214;2024-03-07T01:32:56;2;2;
47982;PMS5003;33751;50.816;-1.214;2024-03-07T01:35:23;2;2;
47982;PMS5003;33751;50.816;-1.214;2024-03-07T01:37:50;3;3;
47982;PMS5003;33751;50.816;-1.214;2024-03-07T01:40:17;1;1;
47982;PMS5003;33751;50.816;-1.214;2024-03-07T01:42:43;3;3;
47982;PMS5003;33751;50.816;-1.214;2024-03-07T01:45:14;2;2;
47982;PMS5003;33751;50.816;-1.214;2024-03-07T01:47:41;2;2;
47982;PMS5003;33751;50.816;-1.214;2024-03-07T01:50:08;3;2;
47982;PMS5003;33751;50.816;-1.214;2024-03-07T01:52:36;4;4;
47982;PMS5003;33751;50.816;-1.214;2024-03-07T01:55:03;2;2;
47982;PMS5003;33751;50.816;-1.214;2024-03-07T01:57:31;4;3;
47982;PMS5003;33751;50.816;-1.214;2024-03-07T01:59:58;1;1;
47982;PMS5003;33751;50.816;-1.214;2024-03-07T02:02:27;3;3;
47982;PMS5003;33751;50.816;-1.214;2024-03-07T02:04:53;4;4;
47982;PMS5003;33751;50.816;-1.214;2024-03-07T02:07:20;1;1;
47982;PMS5003;33751;50.816;-1.214;2024-03-07T02:09:47;3;3;
47982;PMS5003;33751;50.816;-1.214;2024-03-07T02:12:14;3;3;
47982;PMS5003;33751;50.816;-1.214;2024-03-07T02:14:40;2;2;
47982;PMS5003;33751;50.816;-1.214;2024-03-07T02:17:07;1;1;
47982;PMS5003;33751;50.816;-1.214;2024-03-07T02:19:34;4;4;
47982;PMS5003;33751;50.816;-1.214;2024-03-07T02:22:01;2;2;
47982;PMS5003;33751;50.816;-1.214;2024-03-07T02:24:28;2;2;
47982;PMS5003;33751;50.816;-1.214;2024-03-07T02:26:54;2;2;
47982;PMS5003;33751;50.816;-1.214;2024-03-07T02:29:21;3;3;
47982;PMS5003;33751;50.816;-1.214;2024-03-07T02:31:47;2;2;
47982;PMS5003;33751;50.816;-1.214;2024-03-07T02:34:14;2;2;
47982;PMS5003;33751;50.816;-1.214;2024-03-07T02:36:40;2;2;
47982;PMS5003;33751;50.816;-1.214;2024-03-07T02:39:07;5;3;
47982;PMS5003;33751;50.816;-1.214;2024-03-07T02:41:33;1;1;
47982;PMS5003;33751;50.816;-1.214;2024-03-07T02:44:00;4;3;
47982;PMS5003;33751;50.816;-1.214;2024-03-07T02:46:26;0;0;
47982;PMS5003;33751;50.816;-1.214;2024-03-07T02:48:53;3;3;
47982;PMS5003;33751;50.816;-1.214;2024-03-07T02:51:20;1;1;
47982;PMS5003;33751;50.816;-1.214;2024-03-07T02:53:46;2;2;
47982;PMS5003;33751;50.816;-1.214;2024-03-07T02:56:13;2;1;
47982;PMS5003;33751;50.816;-1.214;2024-03-07T02:58:40;2;2;
47982;PMS5003;33751;50.816;-1.214;2024-03-07T03:01:07;2;2;
47982;PMS5003;33751;50.816;-1.214;2024-03-07T03:03:34;2;1;
47982;PMS5003;33751;50.816;-1.214;2024-03-07T03:06:01;2;2;
47982;PMS5003;33751;50.816;-1.214;2024-03-07T03:08:29;2;2;
47982;PMS5003;33751;50.816;-1.214;2024-03-07T03:10:56;1;1;
47982;PMS5003;33751;50.816;-1.214;2024-03-07T03:13:23;2;2;
47982;PMS5003;33751;50.816;-1.214;2024-03-07T03:15:50;2;1;
47982;PMS5003;33751;50.816;-1.214;2024-03-07T03:18:16;2;2;
47982;PMS5003;33751;50.816;-1.214;2024-03-07T03:20:43;1;1;
47982;PMS5003;33751;50.816;-1.214;2024-03-07T03:23:09;2;2;
47982;PMS5003;33751;50.816;-1.214;2024-03-07T03:25:36;2;2;
47982;PMS5003;33751;50.816;-1.214;2024-03-07T03:28:03;1;1;
47982;PMS5003;33751;50.816;-1.214;2024-03-07T03:30:31;2;2;
47982;PMS5003;33751;50.816;-1.214;2024-03-07T03:32:57;3;3;
47982;PMS5003;33751;50.816;-1.214;2024-03-07T03:35:24;2;2;
47982;PMS5003;33751;50.816;-1.214;2024-03-07T03:37:50;3;2;
47982;PMS5003;33751;50.816;-1.214;2024-03-07T03:40:17;1;1;
47982;PMS5003;33751;50.816;-1.214;2024-03-07T03:42:44;4;3;
47982;PMS5003;33751;50.816;-1.214;2024-03-07T03:45:10;2;2;
47982;PMS5003;33751;50.816;-1.214;2024-03-07T03:47:37;4;3;
47982;PMS5003;33751;50.816;-1.214;2024-03-07T03:50:05;1;1;
47982;PMS5003;33751;50.816;-1.214;2024-03-07T03:52:33;2;1;
47982;PMS5003;33751;50.816;-1.214;2024-03-07T03:55:00;2;2;
47982;PMS5003;33751;50.816;-1.214;2024-03-07T03:57:28;1;1;
47982;PMS5003;33751;50.816;-1.214;2024-03-07T03:59:56;1;1;
47982;PMS5003;33751;50.816;-1.214;2024-03-07T04:02:22;2;1;
47982;PMS5003;33751;50.816;-1.214;2024-03-07T04:04:50;1;1;
47982;PMS5003;33751;50.816;-1.214;2024-03-07T04:07:17;1;1;
47982;PMS5003;33751;50.816;-1.214;2024-03-07T04:09:44;2;2;
47982;PMS5003;33751;50.816;-1.214;2024-03-07T04:12:12;1;1;
47982;PMS5003;33751;50.816;-1.214;2024-03-07T04:14:40;1;1;
47982;PMS5003;33751;50.816;-1.214;2024-03-07T04:17:08;1;1;
47982;PMS5003;33751;50.816;-1.214;2024-03-07T04:19:35;4;4;
47982;PMS5003;33751;50.816;-1.214;2024-03-07T04:22:02;3;3;
47982;PMS5003;33751;50.816;-1.214;2024-03-07T04:24:29;2;2;
47982;PMS5003;33751;50.816;-1.214;2024-03-07T04:26:56;1;1;
47982;PMS5003;33751;50.816;-1.214;2024-03-07T04:29:22;3;3;
47982;PMS5003;33751;50.816;-1.214;2024-03-07T04:31:49;2;2;
47982;PMS5003;33751;50.816;-1.214;2024-03-07T04:34:16;2;2;
47982;PMS5003;33751;50.816;-1.214;2024-03-07T04:36:43;1;1;
47982;PMS5003;33751;50.816;-1.214;2024-03-07T04:39:09;1;1;
47982;PMS5003;33751;50.816;-1.214;2024-03-07T04:41:36;1;1;
47982;PMS5003;33751;50.816;-1.214;2024-03-07T04:44:03;1;1;
47982;PMS5003;33751;50.816;-1.214;2024-03-07T04:46:30;2;2;
47982;PMS5003;33751;50.816;-1.214;2024-03-07T04:48:57;0;0;
47982;PMS5003;33751;50.816;-1.214;2024-03-07T04:51:23;2;2;
47982;PMS5003;33751;50.816;-1.214;2024-03-07T04:53:50;1;1;
47982;PMS5003;33751;50.816;-1.214;2024-03-07T04:56:16;4;3;
47982;PMS5003;33751;50.816;-1.214;2024-03-07T04:58:43;1;1;
47982;PMS5003;33751;50.816;-1.214;2024-03-07T05:01:09;3;3;
47982;PMS5003;33751;50.816;-1.214;2024-03-07T05:03:36;1;1;
47982;PMS5003;33751;50.816;-1.214;2024-03-07T05:06:03;2;2;
47982;PMS5003;33751;50.816;-1.214;2024-03-07T05:08:30;3;1;
47982;PMS5003;33751;50.816;-1.214;2024-03-07T05:10:56;1;1;
47982;PMS5003;33751;50.816;-1.214;2024-03-07T05:13:23;0;0;
47982;PMS5003;33751;50.816;-1.214;2024-03-07T05:15:50;2;2;
47982;PMS5003;33751;50.816;-1.214;2024-03-07T05:18:17;2;2;
47982;PMS5003;33751;50.816;-1.214;2024-03-07T05:20:43;3;1;
47982;PMS5003;33751;50.816;-1.214;2024-03-07T05:23:10;0;0;
47982;PMS5003;33751;50.816;-1.214;2024-03-07T05:25:36;2;2;
47982;PMS5003;33751;50.816;-1.214;2024-03-07T05:28:03;2;2;
47982;PMS5003;33751;50.816;-1.214;2024-03-07T05:30:30;2;2;
47982;PMS5003;33751;50.816;-1.214;2024-03-07T05:32:57;3;3;
47982;PMS5003;33751;50.816;-1.214;2024-03-07T05:35:24;1;1;
47982;PMS5003;33751;50.816;-1.214;2024-03-07T05:37:51;4;4;
47982;PMS5003;33751;50.816;-1.214;2024-03-07T05:40:18;2;2;
47982;PMS5003;33751;50.816;-1.214;2024-03-07T05:42:45;2;2;
47982;PMS5003;33751;50.816;-1.214;2024-03-07T05:45:12;3;3;
47982;PMS5003;33751;50.816;-1.214;2024-03-07T05:47:39;2;2;
47982;PMS5003;33751;50.816;-1.214;2024-03-07T05:50:07;4;4;
47982;PMS5003;33751;50.816;-1.214;2024-03-07T05:52:34;3;3;
47982;PMS5003;33751;50.816;-1.214;2024-03-07T05:55:00;3;3;
47982;PMS5003;33751;50.816;-1.214;2024-03-07T05:57:27;2;2;
47982;PMS5003;33751;50.816;-1.214;2024-03-07T05:59:53;6;5;
47982;PMS5003;33751;50.816;-1.214;2024-03-07T06:02:21;4;3;
47982;PMS5003;33751;50.816;-1.214;2024-03-07T06:04:48;3;3;
47982;PMS5003;33751;50.816;-1.214;2024-03-07T06:07:15;4;3;
47982;PMS5003;33751;50.816;-1.214;2024-03-07T06:09:41;5;4;
47982;PMS5003;33751;50.816;-1.214;2024-03-07T06:12:08;4;4;
47982;PMS5003;33751;50.816;-1.214;2024-03-07T06:14:34;4;4;
47982;PMS5003;33751;50.816;-1.214;2024-03-07T06:17:01;5;5;
47982;PMS5003;33751;50.816;-1.214;2024-03-07T06:19:27;3;3;
47982;PMS5003;33751;50.816;-1.214;2024-03-07T06:21:54;4;4;
47982;PMS5003;33751;50.816;-1.214;2024-03-07T06:24:21;5;3;
47982;PMS5003;33751;50.816;-1.214;2024-03-07T06:26:48;5;5;
47982;PMS5003;33751;50.816;-1.214;2024-03-07T06:29:15;3;3;
47982;PMS5003;33751;50.816;-1.214;2024-03-07T06:31:44;3;3;
47982;PMS5003;33751;50.816;-1.214;2024-03-07T06:34:11;3;3;
47982;PMS5003;33751;50.816;-1.214;2024-03-07T06:36:38;4;3;
47982;PMS5003;33751;50.816;-1.214;2024-03-07T06:39:05;2;2;
47982;PMS5003;33751;50.816;-1.214;2024-03-07T06:41:33;5;5;
47982;PMS5003;33751;50.816;-1.214;2024-03-07T06:44:00;4;2;
47982;PMS5003;33751;50.816;-1.214;2024-03-07T06:46:27;4;4;
47982;PMS5003;33751;50.816;-1.214;2024-03-07T06:48:55;2;2;
47982;PMS5003;33751;50.816;-1.214;2024-03-07T06:51:22;2;2;
47982;PMS5003;33751;50.816;-1.214;2024-03-07T06:53:48;3;3;
47982;PMS5003;33751;50.816;-1.214;2024-03-07T06:56:15;2;2;
47982;PMS5003;33751;50.816;-1.214;2024-03-07T06:58:42;4;4;
47982;PMS5003;33751;50.816;-1.214;2024-03-07T07:01:10;3;3;
47982;PMS5003;33751;50.816;-1.214;2024-03-07T07:03:36;5;2;
47982;PMS5003;33751;50.816;-1.214;2024-03-07T07:06:03;0;0;
47982;PMS5003;33751;50.816;-1.214;2024-03-07T07:08:31;2;2;
47982;PMS5003;33751;50.816;-1.214;2024-03-07T07:10:58;3;3;
47982;PMS5003;33751;50.816;-1.214;2024-03-07T07:13:26;4;2;
47982;PMS5003;33751;50.816;-1.214;2024-03-07T07:15:52;3;3;
47982;PMS5003;33751;50.816;-1.214;2024-03-07T07:18:19;4;2;
47982;PMS5003;33751;50.816;-1.214;2024-03-07T07:20:45;3;3;
47982;PMS5003;33751;50.816;-1.214;2024-03-07T07:23:12;2;2;
47982;PMS5003;33751;50.816;-1.214;2024-03-07T07:25:38;6;2;
47982;PMS5003;33751;50.816;-1.214;2024-03-07T07:28:05;6;3;
47982;PMS5003;33751;50.816;-1.214;2024-03-07T07:30:32;1;1;
47982;PMS5003;33751;50.816;-1.214;2024-03-07T07:32:59;4;4;
47982;PMS5003;33751;50.816;-1.214;2024-03-07T07:35:25;5;5;
47982;PMS5003;33751;50.816;-1.214;2024-03-07T07:37:52;4;4;
47982;PMS5003;33751;50.816;-1.214;2024-03-07T07:40:20;1;1;
47982;PMS5003;33751;50.816;-1.214;2024-03-07T07:42:49;2;1;
47982;PMS5003;33751;50.816;-1.214;2024-03-07T07:45:18;3;1;
47982;PMS5003;33751;50.816;-1.214;2024-03-07T07:47:46;2;2;
47982;PMS5003;33751;50.816;-1.214;2024-03-07T07:50:15;2;2;
47982;PMS5003;33751;50.816;-1.214;2024-03-07T07:52:44;2;2;
47982;PMS5003;33751;50.816;-1.214;2024-03-07T07:55:12;2;2;
47982;PMS5003;33751;50.816;-1.214;2024-03-07T07:57:38;2;2;
47982;PMS5003;33751;50.816;-1.214;2024-03-07T08:00:07;2;2;
47982;PMS5003;33751;50.816;-1.214;2024-03-07T08:02:35;3;3;
47982;PMS5003;33751;50.816;-1.214;2024-03-07T08:05:02;1;1;
47982;PMS5003;33751;50.816;-1.214;2024-03-07T08:07:29;2;2;
47982;PMS5003;33751;50.816;-1.214;2024-03-07T08:09:56;2;2;
47982;PMS5003;33751;50.816;-1.214;2024-03-07T08:12:22;3;3;
47982;PMS5003;33751;50.816;-1.214;2024-03-07T08:14:49;2;2;
47982;PMS5003;33751;50.816;-1.214;2024-03-07T08:17:15;3;3;
47982;PMS5003;33751;50.816;-1.214;2024-03-07T08:19:42;3;3;
47982;PMS5003;33751;50.816;-1.214;2024-03-07T08:22:09;2;0;
47982;PMS5003;33751;50.816;-1.214;2024-03-07T08:24:37;1;1;
47982;PMS5003;33751;50.816;-1.214;2024-03-07T08:27:03;2;2;
47982;PMS5003;33751;50.816;-1.214;2024-03-07T08:29:31;1;1;
47982;PMS5003;33751;50.816;-1.214;2024-03-07T08:31:57;3;3;
47982;PMS5003;33751;50.816;-1.214;2024-03-07T08:34:23;2;2;
47982;PMS5003;33751;50.816;-1.214;2024-03-07T08:36:50;1;1;
47982;PMS5003;33751;50.816;-1.214;2024-03-07T08:39:17;2;2;
47982;PMS5003;33751;50.816;-1.214;2024-03-07T08:41:44;3;3;
47982;PMS5003;33751;50.816;-1.214;2024-03-07T08:44:10;2;2;
47982;PMS5003;33751;50.816;-1.214;2024-03-07T08:46:37;3;2;
47982;PMS5003;33751;50.816;-1.214;2024-03-07T08:49:03;4;1;
47982;PMS5003;33751;50.816;-1.214;2024-03-07T08:51:30;2;2;
47982;PMS5003;33751;50.816;-1.214;2024-03-07T08:53:56;2;2;
47982;PMS5003;33751;50.816;-1.214;2024-03-07T08:56:23;0;0;
47982;PMS5003;33751;50.816;-1.214;2024-03-07T08:58:50;3;3;
47982;PMS5003;33751;50.816;-1.214;2024-03-07T09:01:17;1;1;
47982;PMS5003;33751;50.816;-1.214;2024-03-07T09:03:43;2;2;
47982;PMS5003;33751;50.816;-1.214;2024-03-07T09:06:10;1;1;
47982;PMS5003;33751;50.816;-1.214;2024-03-07T09:08:36;4;2;
47982;PMS5003;33751;50.816;-1.214;2024-03-07T09:11:03;2;2;
47982;PMS5003;33751;50.816;-1.214;2024-03-07T09:13:29;2;2;
47982;PMS5003;33751;50.816;-1.214;2024-03-07T09:15:56;4;3;
47982;PMS5003;33751;50.816;-1.214;2024-03-07T09:18:22;1;1;
47982;PMS5003;33751;50.816;-1.214;2024-03-07T09:20:49;2;2;
47982;PMS5003;33751;50.816;-1.214;2024-03-07T09:23:16;3;2;
47982;PMS5003;33751;50.816;-1.214;2024-03-07T09:25:43;2;2;
47982;PMS5003;33751;50.816;-1.214;2024-03-07T09:28:10;2;2;
47982;PMS5003;33751;50.816;-1.214;2024-03-07T09:30:37;2;2;
47982;PMS5003;33751;50.816;-1.214;2024-03-07T09:33:03;1;1;
47982;PMS5003;33751;50.816;-1.214;2024-03-07T09:35:30;1;1;
47982;PMS5003;33751;50.816;-1.214;2024-03-07T09:37:57;1;1;
47982;PMS5003;33751;50.816;-1.214;2024-03-07T09:40:23;3;3;
47982;PMS5003;33751;50.816;-1.214;2024-03-07T09:42:50;3;2;
47982;PMS5003;33751;50.816;-1.214;2024-03-07T09:45:17;3;3;
47982;PMS5003;33751;50.816;-1.214;2024-03-07T09:47:46;3;3;
47982;PMS5003;33751;50.816;-1.214;2024-03-07T09:50:15;1;1;
47982;PMS5003;33751;50.816;-1.214;2024-03-07T09:52:43;3;2;
47982;PMS5003;33751;50.816;-1.214;2024-03-07T09:55:11;3;3;
47982;PMS5003;33751;50.816;-1.214;2024-03-07T09:57:38;2;1;
47982;PMS5003;33751;50.816;-1.214;2024-03-07T10:00:08;3;3;
47982;PMS5003;33751;50.816;-1.214;2024-03-07T10:02:37;1;1;
47982;PMS5003;33751;50.816;-1.214;2024-03-07T10:05:07;3;2;
47982;PMS5003;33751;50.816;-1.214;2024-03-07T10:07:36;3;3;
47982;PMS5003;33751;50.816;-1.214;2024-03-07T10:10:03;1;1;
47982;PMS5003;33751;50.816;-1.214;2024-03-07T10:12:30;3;3;
47982;PMS5003;33751;50.816;-1.214;2024-03-07T10:14:56;4;3;
47982;PMS5003;33751;50.816;-1.214;2024-03-07T10:17:23;3;3;
47982;PMS5003;33751;50.816;-1.214;2024-03-07T10:19:50;2;2;
47982;PMS5003;33751;50.816;-1.214;2024-03-07T10:22:16;3;3;
47982;PMS5003;33751;50.816;-1.214;2024-03-07T10:24:49;2;2;
47982;PMS5003;33751;50.816;-1.214;2024-03-07T10:27:17;3;2;
47982;PMS5003;33751;50.816;-1.214;2024-03-07T10:29:45;3;2;
47982;PMS5003;33751;50.816;-1.214;2024-03-07T10:32:12;2;2;
47982;PMS5003;33751;50.816;-1.214;2024-03-07T10:34:39;2;2;
47982;PMS5003;33751;50.816;-1.214;2024-03-07T10:37:06;1;1;
47982;PMS5003;33751;50.816;-1.214;2024-03-07T10:39:32;2;2;
47982;PMS5003;33751;50.816;-1.214;2024-03-07T10:42:00;0;0;
47982;PMS5003;33751;50.816;-1.214;2024-03-07T10:44:27;3;3;
47982;PMS5003;33751;50.816;-1.214;2024-03-07T10:46:55;1;1;
47982;PMS5003;33751;50.816;-1.214;2024-03-07T10:49:23;3;1;
47982;PMS5003;33751;50.816;-1.214;2024-03-07T10:51:56;1;1;
47982;PMS5003;33751;50.816;-1.214;2024-03-07T10:54:30;1;1;
47982;PMS5003;33751;50.816;-1.214;2024-03-07T10:57:03;2;1;
47982;PMS5003;33751;50.816;-1.214;2024-03-07T10:59:41;2;2;
47982;PMS5003;33751;50.816;-1.214;2024-03-07T11:02:18;4;4;
47982;PMS5003;33751;50.816;-1.214;2024-03-07T11:04:58;2;2;
47982;PMS5003;33751;50.816;-1.214;2024-03-07T11:07:26;4;2;
47982;PMS5003;33751;50.816;-1.214;2024-03-07T11:09:53;3;3;
47982;PMS5003;33751;50.816;-1.214;2024-03-07T11:12:22;3;3;
47982;PMS5003;33751;50.816;-1.214;2024-03-07T11:14:51;4;3;
47982;PMS5003;33751;50.816;-1.214;2024-03-07T11:17:20;2;2;
47982;PMS5003;33751;50.816;-1.214;2024-03-07T11:19:48;1;1;
47982;PMS5003;33751;50.816;-1.214;2024-03-07T11:22:28;2;2;
47982;PMS5003;33751;50.816;-1.214;2024-03-07T11:25:04;3;1;
47982;PMS5003;33751;50.816;-1.214;2024-03-07T11:27:31;3;2;
47982;PMS5003;33751;50.816;-1.214;2024-03-07T11:30:04;5;4;
47982;PMS5003;33751;50.816;-1.214;2024-03-07T11:32:34;1;1;
47982;PMS5003;33751;50.816;-1.214;2024-03-07T11:35:03;2;2;
47982;PMS5003;33751;50.816;-1.214;2024-03-07T11:37:38;3;3;
47982;PMS5003;33751;50.816;-1.214;2024-03-07T11:40:07;3;3;
47982;PMS5003;33751;50.816;-1.214;2024-03-07T11:42:35;3;1;
47982;PMS5003;33751;50.816;-1.214;2024-03-07T11:45:01;2;2;
47982;PMS5003;33751;50.816;-1.214;2024-03-07T11:47:35;0;0;
47982;PMS5003;33751;50.816;-1.214;2024-03-07T11:50:03;3;3;
47982;PMS5003;33751;50.816;-1.214;2024-03-07T11:52:31;2;2;
47982;PMS5003;33751;50.816;-1.214;2024-03-07T11:54:57;3;3;
47982;PMS5003;33751;50.816;-1.214;2024-03-07T11:57:24;2;2;
47982;PMS5003;33751;50.816;-1.214;2024-03-07T11:59:51;3;3;
47982;PMS5003;33751;50.816;-1.214;2024-03-07T12:02:19;1;1;
47982;PMS5003;33751;50.816;-1.214;2024-03-07T12:04:46;2;2;
47982;PMS5003;33751;50.816;-1.214;2024-03-07T12:07:14;4;3;
47982;PMS5003;33751;50.816;-1.214;2024-03-07T12:09:41;2;2;
47982;PMS5003;33751;50.816;-1.214;2024-03-07T12:12:07;2;2;
47982;PMS5003;33751;50.816;-1.214;2024-03-07T12:14:35;3;2;
47982;PMS5003;33751;50.816;-1.214;2024-03-07T12:17:01;1;1;
47982;PMS5003;33751;50.816;-1.214;2024-03-07T12:19:28;3;2;
47982;PMS5003;33751;50.816;-1.214;2024-03-07T12:21:57;3;3;
47982;PMS5003;33751;50.816;-1.214;2024-03-07T12:24:27;1;1;
47982;PMS5003;33751;50.816;-1.214;2024-03-07T12:27:04;6;4;
47982;PMS5003;33751;50.816;-1.214;2024-03-07T12:29:31;4;3;
47982;PMS5003;33751;50.816;-1.214;2024-03-07T12:31:58;1;1;
47982;PMS5003;33751;50.816;-1.214;2024-03-07T12:34:24;2;2;
47982;PMS5003;33751;50.816;-1.214;2024-03-07T12:36:51;4;4;
47982;PMS5003;33751;50.816;-1.214;2024-03-07T12:39:22;2;2;
47982;PMS5003;33751;50.816;-1.214;2024-03-07T12:41:49;2;2;
47982;PMS5003;33751;50.816;-1.214;2024-03-07T12:44:16;4;4;
47982;PMS5003;33751;50.816;-1.214;2024-03-07T12:46:42;4;3;
47982;PMS5003;33751;50.816;-1.214;2024-03-07T12:49:11;5;4;
47982;PMS5003;33751;50.816;-1.214;2024-03-07T12:51:38;4;4;
47982;PMS5003;33751;50.816;-1.214;2024-03-07T12:54:04;5;5;
47982;PMS5003;33751;50.816;-1.214;2024-03-07T12:56:31;7;4;
47982;PMS5003;33751;50.816;-1.214;2024-03-07T12:58:58;7;7;
47982;PMS5003;33751;50.816;-1.214;2024-03-07T13:01:25;6;6;
47982;PMS5003;33751;50.816;-1.214;2024-03-07T13:03:52;7;7;
47982;PMS5003;33751;50.816;-1.214;2024-03-07T13:06:19;7;7;
47982;PMS5003;33751;50.816;-1.214;2024-03-07T13:08:45;4;4;
47982;PMS5003;33751;50.816;-1.214;2024-03-07T13:11:12;8;7;
47982;PMS5003;33751;50.816;-1.214;2024-03-07T13:13:39;6;6;
47982;PMS5003;33751;50.816;-1.214;2024-03-07T13:16:06;2;2;
47982;PMS5003;33751;50.816;-1.214;2024-03-07T13:18:33;6;6;
47982;PMS5003;33751;50.816;-1.214;2024-03-07T13:21:00;6;5;
47982;PMS5003;33751;50.816;-1.214;2024-03-07T13:23:26;8;8;
47982;PMS5003;33751;50.816;-1.214;2024-03-07T13:25:53;6;6;
47982;PMS5003;33751;50.816;-1.214;2024-03-07T13:28:20;4;4;
47982;PMS5003;33751;50.816;-1.214;2024-03-07T13:30:47;11;9;
47982;PMS5003;33751;50.816;-1.214;2024-03-07T13:33:14;7;7;
47982;PMS5003;33751;50.816;-1.214;2024-03-07T13:35:41;10;9;
47982;PMS5003;33751;50.816;-1.214;2024-03-07T13:38:08;12;10;
47982;PMS5003;33751;50.816;-1.214;2024-03-07T13:40:35;10;8;
47982;PMS5003;33751;50.816;-1.214;2024-03-07T13:43:02;10;9;
47982;PMS5003;33751;50.816;-1.214;2024-03-07T13:45:29;13;11;
47982;PMS5003;33751;50.816;-1.214;2024-03-07T13:47:57;6;6;
47982;PMS5003;33751;50.816;-1.214;2024-03-07T13:50:26;5;5;
47982;PMS5003;33751;50.816;-1.214;2024-03-07T13:52:54;9;7;
47982;PMS5003;33751;50.816;-1.214;2024-03-07T13:55:22;14;14;
47982;PMS5003;33751;50.816;-1.214;2024-03-07T13:57:49;10;10;
47982;PMS5003;33751;50.816;-1.214;2024-03-07T14:00:27;14;12;
47982;PMS5003;33751;50.816;-1.214;2024-03-07T14:03:20;11;11;
47982;PMS5003;33751;50.816;-1.214;2024-03-07T14:06:01;9;9;
47982;PMS5003;33751;50.816;-1.214;2024-03-07T14:09:13;13;11;
47982;PMS5003;33751;50.816;-1.214;2024-03-07T14:12:03;8;7;
47982;PMS5003;33751;50.816;-1.214;2024-03-07T14:16:15;10;7;
47982;PMS5003;33751;50.816;-1.214;2024-03-07T14:19:41;13;13;
47982;PMS5003;33751;50.816;-1.214;2024-03-07T14:22:30;6;6;
47982;PMS5003;33751;50.816;-1.214;2024-03-07T14:25:47;9;9;
47982;PMS5003;33751;50.816;-1.214;2024-03-07T14:28:42;6;6;
47982;PMS5003;33751;50.816;-1.214;2024-03-07T14:31:18;8;8;
47982;PMS5003;33751;50.816;-1.214;2024-03-07T14:33:48;14;14;
47982;PMS5003;33751;50.816;-1.214;2024-03-07T14:36:32;9;7;
47982;PMS5003;33751;50.816;-1.214;2024-03-07T14:39:03;17;16;
47982;PMS5003;33751;50.816;-1.214;2024-03-07T14:41:48;7;7;
47982;PMS5003;33751;50.816;-1.214;2024-03-07T14:44:18;10;7;
47982;PMS5003;33751;50.816;-1.214;2024-03-07T14:46:46;8;6;
47982;PMS5003;33751;50.816;-1.214;2024-03-07T14:49:16;9;8;
47982;PMS5003;33751;50.816;-1.214;2024-03-07T14:51:44;10;8;
47982;PMS5003;33751;50.816;-1.214;2024-03-07T14:54:12;9;9;
47982;PMS5003;33751;50.816;-1.214;2024-03-07T14:56:40;9;8;
47982;PMS5003;33751;50.816;-1.214;2024-03-07T14:59:06;10;10;
47982;PMS5003;33751;50.816;-1.214;2024-03-07T15:01:33;11;7;
47982;PMS5003;33751;50.816;-1.214;2024-03-07T15:04:01;10;8;
47982;PMS5003;33751;50.816;-1.214;2024-03-07T15:06:28;7;5;
47982;PMS5003;33751;50.816;-1.214;2024-03-07T15:08:54;13;13;
47982;PMS5003;33751;50.816;-1.214;2024-03-07T15:11:22;11;11;
47982;PMS5003;33751;50.816;-1.214;2024-03-07T15:13:52;6;6;
47982;PMS5003;33751;50.816;-1.214;2024-03-07T15:16:19;6;6;
47982;PMS5003;33751;50.816;-1.214;2024-03-07T15:18:46;7;7;
47982;PMS5003;33751;50.816;-1.214;2024-03-07T15:21:13;10;10;
47982;PMS5003;33751;50.816;-1.214;2024-03-07T15:23:40;11;10;
47982;PMS5003;33751;50.816;-1.214;2024-03-07T15:26:06;5;5;
47982;PMS5003;33751;50.816;-1.214;2024-03-07T15:28:33;8;8;
47982;PMS5003;33751;50.816;-1.214;2024-03-07T15:31:00;11;8;
47982;PMS5003;33751;50.816;-1.214;2024-03-07T15:33:27;7;7;
47982;PMS5003;33751;50.816;-1.214;2024-03-07T15:35:54;6;6;
47982;PMS5003;33751;50.816;-1.214;2024-03-07T15:38:21;7;7;
47982;PMS5003;33751;50.816;-1.214;2024-03-07T15:40:48;8;8;
47982;PMS5003;33751;50.816;-1.214;2024-03-07T15:43:14;9;9;
47982;PMS5003;33751;50.816;-1.214;2024-03-07T15:45:41;8;8;
47982;PMS5003;33751;50.816;-1.214;2024-03-07T15:48:08;6;6;
47982;PMS5003;33751;50.816;-1.214;2024-03-07T15:50:34;7;7;
47982;PMS5003;33751;50.816;-1.214;2024-03-07T15:53:01;9;8;
47982;PMS5003;33751;50.816;-1.214;2024-03-07T15:55:28;10;8;
47982;PMS5003;33751;50.816;-1.214;2024-03-07T15:57:55;9;8;
47982;PMS5003;33751;50.816;-1.214;2024-03-07T16:00:24;8;8;
47982;PMS5003;33751;50.816;-1.214;2024-03-07T16:02:53;6;6;
47982;PMS5003;33751;50.816;-1.214;2024-03-07T16:05:20;8;8;
47982;PMS5003;33751;50.816;-1.214;2024-03-07T16:07:48;8;6;
47982;PMS5003;33751;50.816;-1.214;2024-03-07T16:10:16;9;9;
47982;PMS5003;33751;50.816;-1.214;2024-03-07T16:12:43;9;9;
47982;PMS5003;33751;50.816;-1.214;2024-03-07T16:15:10;11;11;
47982;PMS5003;33751;50.816;-1.214;2024-03-07T16:17:37;10;10;
47982;PMS5003;33751;50.816;-1.214;2024-03-07T16:20:05;9;9;
47982;PMS5003;33751;50.816;-1.214;2024-03-07T16:22:33;9;7;
47982;PMS5003;33751;50.816;-1.214;2024-03-07T16:24:59;8;7;
47982;PMS5003;33751;50.816;-1.214;2024-03-07T16:27:26;8;8;
47982;PMS5003;33751;50.816;-1.214;2024-03-07T16:29:53;11;10;
47982;PMS5003;33751;50.816;-1.214;2024-03-07T16:32:20;10;10;
47982;PMS5003;33751;50.816;-1.214;2024-03-07T16:34:46;15;14;
47982;PMS5003;33751;50.816;-1.214;2024-03-07T16:37:13;8;7;
47982;PMS5003;33751;50.816;-1.214;2024-03-07T16:39:40;8;8;